sensor_id;sensor_type;location;lat;lon;timestamp;P1;durP1;ratioP1;P2;durP2;ratioP2
1356;SDS011;672;48.746;9.210;2022-07-17T00:00:49;3.10;;;2.53;;
1356;SDS011;672;48.746;9.210;2022-07-17T00:03:15;4.03;;;3.33;;
1356;SDS011;672;48.746;9.210;2022-07-17T00:05:41;2.77;;;2.57;;
1356;SDS011;672;48.746;9.210;2022-07-17T00:08:07;3.70;;;3.07;;
1356;SDS011;672;48.746;9.210;2022-07-17T00:10:33;3.53;;;3.23;;
1356;SDS011;672;48.746;9.210;2022-07-17T00:12:58;3.10;;;2.83;;
1356;SDS011;672;48.746;9.210;2022-07-17T00:15:24;3.80;;;3.00;;
1356;SDS011;672;48.746;9.210;2022-07-17T00:17:49;5.60;;;2.70;;
1356;SDS011;672;48.746;9.210;2022-07-17T00:20:14;3.10;;;2.60;;
1356;SDS011;672;48.746;9.210;2022-07-17T00:22:39;3.33;;;2.47;;
1356;SDS011;672;48.746;9.210;2022-07-17T00:25:07;2.73;;;2.40;;
1356;SDS011;672;48.746;9.210;2022-07-17T00:27:33;3.73;;;2.27;;
1356;SDS011;672;48.746;9.210;2022-07-17T00:29:58;2.50;;;2.30;;
1356;SDS011;672;48.746;9.210;2022-07-17T00:32:23;3.07;;;2.43;;
1356;SDS011;672;48.746;9.210;2022-07-17T00:34:49;2.53;;;2.33;;
1356;SDS011;672;48.746;9.210;2022-07-17T00:37:14;3.20;;;2.67;;
1356;SDS011;672;48.746;9.210;2022-07-17T00:39:39;3.30;;;2.40;;
1356;SDS011;672;48.746;9.210;2022-07-17T00:42:04;3.60;;;2.80;;
1356;SDS011;672;48.746;9.210;2022-07-17T00:44:31;2.60;;;2.40;;
1356;SDS011;672;48.746;9.210;2022-07-17T00:46:56;4.20;;;2.40;;
1356;SDS011;672;48.746;9.210;2022-07-17T00:49:21;3.03;;;2.80;;
1356;SDS011;672;48.746;9.210;2022-07-17T00:51:46;3.10;;;2.80;;
1356;SDS011;672;48.746;9.210;2022-07-17T00:54:12;2.63;;;2.43;;
1356;SDS011;672;48.746;9.210;2022-07-17T00:56:39;3.20;;;2.80;;
1356;SDS011;672;48.746;9.210;2022-07-17T00:59:05;2.57;;;2.37;;
1356;SDS011;672;48.746;9.210;2022-07-17T01:01:31;2.80;;;2.60;;
1356;SDS011;672;48.746;9.210;2022-07-17T01:03:56;2.90;;;2.70;;
1356;SDS011;672;48.746;9.210;2022-07-17T01:06:22;3.90;;;2.40;;
1356;SDS011;672;48.746;9.210;2022-07-17T01:08:47;2.90;;;2.40;;
1356;SDS011;672;48.746;9.210;2022-07-17T01:11:12;3.23;;;2.60;;
1356;SDS011;672;48.746;9.210;2022-07-17T01:13:37;2.60;;;2.40;;
1356;SDS011;672;48.746;9.210;2022-07-17T01:16:02;4.10;;;2.70;;
1356;SDS011;672;48.746;9.210;2022-07-17T01:18:28;3.03;;;2.73;;
1356;SDS011;672;48.746;9.210;2022-07-17T01:20:53;4.43;;;2.40;;
1356;SDS011;672;48.746;9.210;2022-07-17T01:23:19;2.33;;;2.13;;
1356;SDS011;672;48.746;9.210;2022-07-17T01:25:45;2.80;;;2.33;;
1356;SDS011;672;48.746;9.210;2022-07-17T01:28:10;3.40;;;2.17;;
1356;SDS011;672;48.746;9.210;2022-07-17T01:30:35;3.60;;;2.27;;
1356;SDS011;672;48.746;9.210;2022-07-17T01:33:01;2.50;;;2.30;;
1356;SDS011;672;48.746;9.210;2022-07-17T01:35:26;2.50;;;2.30;;
1356;SDS011;672;48.746;9.210;2022-07-17T01:37:51;2.63;;;2.40;;
1356;SDS011;672;48.746;9.210;2022-07-17T01:40:17;3.47;;;2.60;;
1356;SDS011;672;48.746;9.210;2022-07-17T01:42:43;2.90;;;2.40;;
1356;SDS011;672;48.746;9.210;2022-07-17T01:45:09;4.40;;;2.50;;
1356;SDS011;672;48.746;9.210;2022-07-17T01:47:34;2.37;;;2.17;;
1356;SDS011;672;48.746;9.210;2022-07-17T01:50:00;3.10;;;2.17;;
1356;SDS011;672;48.746;9.210;2022-07-17T01:52:25;2.70;;;2.50;;
1356;SDS011;672;48.746;9.210;2022-07-17T01:54:51;3.80;;;3.20;;
1356;SDS011;672;48.746;9.210;2022-07-17T01:57:16;3.43;;;3.13;;
1356;SDS011;672;48.746;9.210;2022-07-17T01:59:42;3.50;;;3.20;;
1356;SDS011;672;48.746;9.210;2022-07-17T02:02:07;3.83;;;3.40;;
1356;SDS011;672;48.746;9.210;2022-07-17T02:04:34;3.83;;;3.53;;
1356;SDS011;672;48.746;9.210;2022-07-17T02:06:59;7.70;;;3.50;;
1356;SDS011;672;48.746;9.210;2022-07-17T02:09:25;4.83;;;3.67;;
1356;SDS011;672;48.746;9.210;2022-07-17T02:11:50;5.00;;;4.53;;
1356;SDS011;672;48.746;9.210;2022-07-17T02:14:15;3.90;;;3.33;;
1356;SDS011;672;48.746;9.210;2022-07-17T02:16:41;3.40;;;3.13;;
1356;SDS011;672;48.746;9.210;2022-07-17T02:19:06;4.23;;;3.83;;
1356;SDS011;672;48.746;9.210;2022-07-17T02:21:31;4.37;;;3.97;;
1356;SDS011;672;48.746;9.210;2022-07-17T02:23:56;4.60;;;3.80;;
1356;SDS011;672;48.746;9.210;2022-07-17T02:26:21;4.50;;;4.10;;
1356;SDS011;672;48.746;9.210;2022-07-17T02:28:47;5.23;;;4.17;;
1356;SDS011;672;48.746;9.210;2022-07-17T02:31:12;3.70;;;3.40;;
1356;SDS011;672;48.746;9.210;2022-07-17T02:33:37;3.60;;;3.30;;
1356;SDS011;672;48.746;9.210;2022-07-17T02:36:02;4.20;;;3.90;;
1356;SDS011;672;48.746;9.210;2022-07-17T02:38:28;4.30;;;3.80;;
1356;SDS011;672;48.746;9.210;2022-07-17T02:40:53;5.63;;;3.57;;
1356;SDS011;672;48.746;9.210;2022-07-17T02:43:18;4.20;;;3.50;;
1356;SDS011;672;48.746;9.210;2022-07-17T02:45:43;4.53;;;3.70;;
1356;SDS011;672;48.746;9.210;2022-07-17T02:48:09;4.57;;;3.70;;
1356;SDS011;672;48.746;9.210;2022-07-17T02:50:34;3.50;;;3.20;;
1356;SDS011;672;48.746;9.210;2022-07-17T02:52:59;3.37;;;3.17;;
1356;SDS011;672;48.746;9.210;2022-07-17T02:55:24;3.43;;;3.10;;
1356;SDS011;672;48.746;9.210;2022-07-17T02:57:49;3.77;;;2.77;;
1356;SDS011;672;48.746;9.210;2022-07-17T03:00:15;9.63;;;3.70;;
1356;SDS011;672;48.746;9.210;2022-07-17T03:02:41;3.07;;;2.87;;
1356;SDS011;672;48.746;9.210;2022-07-17T03:05:07;3.40;;;3.07;;
1356;SDS011;672;48.746;9.210;2022-07-17T03:07:32;4.60;;;3.30;;
1356;SDS011;672;48.746;9.210;2022-07-17T03:09:57;3.70;;;3.37;;
1356;SDS011;672;48.746;9.210;2022-07-17T03:12:22;4.43;;;3.70;;
1356;SDS011;672;48.746;9.210;2022-07-17T03:14:48;3.13;;;2.93;;
1356;SDS011;672;48.746;9.210;2022-07-17T03:17:13;3.73;;;3.43;;
1356;SDS011;672;48.746;9.210;2022-07-17T03:19:38;3.83;;;3.43;;
1356;SDS011;672;48.746;9.210;2022-07-17T03:22:03;3.40;;;3.17;;
1356;SDS011;672;48.746;9.210;2022-07-17T03:24:28;3.30;;;3.00;;
1356;SDS011;672;48.746;9.210;2022-07-17T03:26:54;3.33;;;3.03;;
1356;SDS011;672;48.746;9.210;2022-07-17T03:29:19;3.90;;;3.50;;
1356;SDS011;672;48.746;9.210;2022-07-17T03:31:45;3.67;;;3.37;;
1356;SDS011;672;48.746;9.210;2022-07-17T03:34:10;8.40;;;3.53;;
1356;SDS011;672;48.746;9.210;2022-07-17T03:36:35;4.37;;;3.97;;
1356;SDS011;672;48.746;9.210;2022-07-17T03:39:01;4.40;;;4.03;;
1356;SDS011;672;48.746;9.210;2022-07-17T03:41:26;3.83;;;3.53;;
1356;SDS011;672;48.746;9.210;2022-07-17T03:43:51;3.63;;;3.20;;
1356;SDS011;672;48.746;9.210;2022-07-17T03:46:16;3.53;;;3.23;;
1356;SDS011;672;48.746;9.210;2022-07-17T03:48:41;3.47;;;2.80;;
1356;SDS011;672;48.746;9.210;2022-07-17T03:51:07;3.43;;;2.90;;
1356;SDS011;672;48.746;9.210;2022-07-17T03:53:32;2.90;;;2.70;;
1356;SDS011;672;48.746;9.210;2022-07-17T03:55:57;4.43;;;3.00;;
1356;SDS011;672;48.746;9.210;2022-07-17T03:58:22;3.37;;;3.10;;
1356;SDS011;672;48.746;9.210;2022-07-17T04:00:47;3.20;;;2.90;;
1356;SDS011;672;48.746;9.210;2022-07-17T04:03:13;3.47;;;3.17;;
1356;SDS011;672;48.746;9.210;2022-07-17T04:05:38;3.27;;;3.00;;
1356;SDS011;672;48.746;9.210;2022-07-17T04:08:03;3.60;;;2.87;;
1356;SDS011;672;48.746;9.210;2022-07-17T04:10:28;3.20;;;2.93;;
1356;SDS011;672;48.746;9.210;2022-07-17T04:12:54;3.00;;;2.80;;
1356;SDS011;672;48.746;9.210;2022-07-17T04:15:19;4.80;;;3.20;;
1356;SDS011;672;48.746;9.210;2022-07-17T04:18:03;4.23;;;3.20;;
1356;SDS011;672;48.746;9.210;2022-07-17T04:20:28;5.57;;;3.00;;
1356;SDS011;672;48.746;9.210;2022-07-17T04:22:53;4.00;;;3.70;;
1356;SDS011;672;48.746;9.210;2022-07-17T04:25:19;4.57;;;4.07;;
1356;SDS011;672;48.746;9.210;2022-07-17T04:27:44;4.23;;;3.93;;
1356;SDS011;672;48.746;9.210;2022-07-17T04:30:09;3.90;;;3.60;;
1356;SDS011;672;48.746;9.210;2022-07-17T04:32:34;4.53;;;4.13;;
1356;SDS011;672;48.746;9.210;2022-07-17T04:34:59;4.80;;;4.40;;
1356;SDS011;672;48.746;9.210;2022-07-17T04:37:25;4.93;;;4.27;;
1356;SDS011;672;48.746;9.210;2022-07-17T04:39:50;4.47;;;4.17;;
1356;SDS011;672;48.746;9.210;2022-07-17T04:42:15;5.30;;;4.20;;
1356;SDS011;672;48.746;9.210;2022-07-17T04:44:40;4.80;;;4.40;;
1356;SDS011;672;48.746;9.210;2022-07-17T04:47:05;4.47;;;4.10;;
1356;SDS011;672;48.746;9.210;2022-07-17T04:49:31;5.40;;;3.80;;
1356;SDS011;672;48.746;9.210;2022-07-17T04:51:56;8.67;;;4.37;;
1356;SDS011;672;48.746;9.210;2022-07-17T04:54:21;4.80;;;4.33;;
1356;SDS011;672;48.746;9.210;2022-07-17T04:56:46;4.67;;;4.27;;
1356;SDS011;672;48.746;9.210;2022-07-17T04:59:11;4.27;;;3.87;;
1356;SDS011;672;48.746;9.210;2022-07-17T05:01:36;4.83;;;4.43;;
1356;SDS011;672;48.746;9.210;2022-07-17T05:04:02;5.20;;;4.50;;
1356;SDS011;672;48.746;9.210;2022-07-17T05:06:27;4.53;;;4.13;;
1356;SDS011;672;48.746;9.210;2022-07-17T05:08:52;4.60;;;4.30;;
1356;SDS011;672;48.746;9.210;2022-07-17T05:11:17;5.70;;;4.83;;
1356;SDS011;672;48.746;9.210;2022-07-17T05:13:43;5.20;;;4.80;;
1356;SDS011;672;48.746;9.210;2022-07-17T05:16:08;4.43;;;4.03;;
1356;SDS011;672;48.746;9.210;2022-07-17T05:18:33;4.43;;;4.03;;
1356;SDS011;672;48.746;9.210;2022-07-17T05:20:58;4.67;;;4.30;;
1356;SDS011;672;48.746;9.210;2022-07-17T05:23:23;5.13;;;4.50;;
1356;SDS011;672;48.746;9.210;2022-07-17T05:25:49;4.20;;;3.80;;
1356;SDS011;672;48.746;9.210;2022-07-17T05:28:14;4.37;;;3.80;;
1356;SDS011;672;48.746;9.210;2022-07-17T05:30:39;4.70;;;4.30;;
1356;SDS011;672;48.746;9.210;2022-07-17T05:33:04;4.47;;;4.07;;
1356;SDS011;672;48.746;9.210;2022-07-17T05:35:29;4.20;;;3.87;;
1356;SDS011;672;48.746;9.210;2022-07-17T05:37:56;4.03;;;3.63;;
1356;SDS011;672;48.746;9.210;2022-07-17T05:40:21;5.10;;;4.30;;
1356;SDS011;672;48.746;9.210;2022-07-17T05:42:46;3.53;;;3.23;;
1356;SDS011;672;48.746;9.210;2022-07-17T05:45:12;3.63;;;3.30;;
1356;SDS011;672;48.746;9.210;2022-07-17T05:47:37;4.80;;;3.70;;
1356;SDS011;672;48.746;9.210;2022-07-17T05:50:02;4.27;;;3.80;;
1356;SDS011;672;48.746;9.210;2022-07-17T05:52:27;4.10;;;3.67;;
1356;SDS011;672;48.746;9.210;2022-07-17T05:54:53;7.13;;;4.07;;
1356;SDS011;672;48.746;9.210;2022-07-17T05:57:18;4.03;;;3.43;;
1356;SDS011;672;48.746;9.210;2022-07-17T05:59:43;4.57;;;4.17;;
1356;SDS011;672;48.746;9.210;2022-07-17T06:02:08;4.03;;;3.63;;
1356;SDS011;672;48.746;9.210;2022-07-17T06:04:33;3.87;;;3.57;;
1356;SDS011;672;48.746;9.210;2022-07-17T06:06:59;3.20;;;2.80;;
1356;SDS011;672;48.746;9.210;2022-07-17T06:09:24;3.57;;;3.27;;
1356;SDS011;672;48.746;9.210;2022-07-17T06:11:49;4.57;;;3.17;;
1356;SDS011;672;48.746;9.210;2022-07-17T06:14:14;3.23;;;2.93;;
1356;SDS011;672;48.746;9.210;2022-07-17T06:16:39;3.50;;;3.20;;
1356;SDS011;672;48.746;9.210;2022-07-17T06:19:05;4.37;;;3.97;;
1356;SDS011;672;48.746;9.210;2022-07-17T06:21:30;4.10;;;3.67;;
1356;SDS011;672;48.746;9.210;2022-07-17T06:23:55;5.70;;;3.60;;
1356;SDS011;672;48.746;9.210;2022-07-17T06:26:20;3.90;;;3.57;;
1356;SDS011;672;48.746;9.210;2022-07-17T06:28:45;3.43;;;3.20;;
1356;SDS011;672;48.746;9.210;2022-07-17T06:31:11;3.90;;;3.50;;
1356;SDS011;672;48.746;9.210;2022-07-17T06:33:36;4.63;;;3.33;;
1356;SDS011;672;48.746;9.210;2022-07-17T06:36:02;3.00;;;2.80;;
1356;SDS011;672;48.746;9.210;2022-07-17T06:38:28;3.77;;;3.47;;
1356;SDS011;672;48.746;9.210;2022-07-17T06:40:53;3.17;;;2.87;;
1356;SDS011;672;48.746;9.210;2022-07-17T06:43:18;3.43;;;3.13;;
1356;SDS011;672;48.746;9.210;2022-07-17T06:45:44;3.00;;;2.80;;
1356;SDS011;672;48.746;9.210;2022-07-17T06:48:09;3.40;;;3.10;;
1356;SDS011;672;48.746;9.210;2022-07-17T06:50:34;4.17;;;3.10;;
1356;SDS011;672;48.746;9.210;2022-07-17T06:53:00;3.20;;;2.90;;
1356;SDS011;672;48.746;9.210;2022-07-17T06:55:25;3.93;;;3.63;;
1356;SDS011;672;48.746;9.210;2022-07-17T06:57:50;5.90;;;2.80;;
1356;SDS011;672;48.746;9.210;2022-07-17T07:00:15;3.27;;;2.90;;
1356;SDS011;672;48.746;9.210;2022-07-17T07:02:43;3.00;;;2.70;;
1356;SDS011;672;48.746;9.210;2022-07-17T07:05:08;3.03;;;2.83;;
1356;SDS011;672;48.746;9.210;2022-07-17T07:07:33;3.23;;;2.93;;
1356;SDS011;672;48.746;9.210;2022-07-17T07:09:59;5.60;;;3.40;;
1356;SDS011;672;48.746;9.210;2022-07-17T07:12:24;4.00;;;3.70;;
1356;SDS011;672;48.746;9.210;2022-07-17T07:14:49;3.77;;;3.50;;
1356;SDS011;672;48.746;9.210;2022-07-17T07:17:14;3.93;;;3.63;;
1356;SDS011;672;48.746;9.210;2022-07-17T07:19:40;3.00;;;2.73;;
1356;SDS011;672;48.746;9.210;2022-07-17T07:22:05;3.40;;;3.17;;
1356;SDS011;672;48.746;9.210;2022-07-17T07:24:30;3.03;;;2.83;;
1356;SDS011;672;48.746;9.210;2022-07-17T07:26:55;5.73;;;3.00;;
1356;SDS011;672;48.746;9.210;2022-07-17T07:29:20;3.33;;;3.03;;
1356;SDS011;672;48.746;9.210;2022-07-17T07:31:46;3.00;;;2.70;;
1356;SDS011;672;48.746;9.210;2022-07-17T07:34:12;3.30;;;3.10;;
1356;SDS011;672;48.746;9.210;2022-07-17T07:36:37;5.33;;;2.90;;
1356;SDS011;672;48.746;9.210;2022-07-17T07:39:02;3.17;;;2.87;;
1356;SDS011;672;48.746;9.210;2022-07-17T07:41:28;2.93;;;2.73;;
1356;SDS011;672;48.746;9.210;2022-07-17T07:43:53;3.60;;;3.30;;
1356;SDS011;672;48.746;9.210;2022-07-17T07:46:18;2.93;;;2.73;;
1356;SDS011;672;48.746;9.210;2022-07-17T07:48:43;3.97;;;3.57;;
1356;SDS011;672;48.746;9.210;2022-07-17T07:51:08;3.40;;;3.10;;
1356;SDS011;672;48.746;9.210;2022-07-17T07:53:34;3.60;;;3.30;;
1356;SDS011;672;48.746;9.210;2022-07-17T07:55:59;2.60;;;2.40;;
1356;SDS011;672;48.746;9.210;2022-07-17T07:58:24;3.60;;;2.50;;
1356;SDS011;672;48.746;9.210;2022-07-17T08:00:49;2.87;;;2.67;;
1356;SDS011;672;48.746;9.210;2022-07-17T08:03:15;2.93;;;2.73;;
1356;SDS011;672;48.746;9.210;2022-07-17T08:05:40;3.20;;;3.00;;
1356;SDS011;672;48.746;9.210;2022-07-17T08:08:05;3.73;;;3.07;;
1356;SDS011;672;48.746;9.210;2022-07-17T08:10:31;3.17;;;2.97;;
1356;SDS011;672;48.746;9.210;2022-07-17T08:12:56;3.57;;;3.27;;
1356;SDS011;672;48.746;9.210;2022-07-17T08:15:22;3.53;;;3.20;;
1356;SDS011;672;48.746;9.210;2022-07-17T08:17:48;3.87;;;2.63;;
1356;SDS011;672;48.746;9.210;2022-07-17T08:20:14;2.50;;;2.30;;
1356;SDS011;672;48.746;9.210;2022-07-17T08:22:43;3.17;;;2.93;;
1356;SDS011;672;48.746;9.210;2022-07-17T08:25:09;2.70;;;2.50;;
1356;SDS011;672;48.746;9.210;2022-07-17T08:27:35;3.03;;;2.77;;
1356;SDS011;672;48.746;9.210;2022-07-17T08:30:02;2.63;;;2.53;;
1356;SDS011;672;48.746;9.210;2022-07-17T08:32:27;2.50;;;2.30;;
1356;SDS011;672;48.746;9.210;2022-07-17T08:34:52;2.93;;;2.73;;
1356;SDS011;672;48.746;9.210;2022-07-17T08:37:17;3.23;;;2.30;;
1356;SDS011;672;48.746;9.210;2022-07-17T08:39:42;2.70;;;2.50;;
1356;SDS011;672;48.746;9.210;2022-07-17T08:42:08;2.90;;;1.97;;
1356;SDS011;672;48.746;9.210;2022-07-17T08:44:33;2.63;;;2.43;;
1356;SDS011;672;48.746;9.210;2022-07-17T08:46:58;2.40;;;2.20;;
1356;SDS011;672;48.746;9.210;2022-07-17T08:49:24;2.67;;;2.47;;
1356;SDS011;672;48.746;9.210;2022-07-17T08:51:49;2.50;;;2.30;;
1356;SDS011;672;48.746;9.210;2022-07-17T08:54:14;2.80;;;2.60;;
1356;SDS011;672;48.746;9.210;2022-07-17T08:56:40;3.27;;;2.60;;
1356;SDS011;672;48.746;9.210;2022-07-17T08:59:05;2.90;;;2.30;;
1356;SDS011;672;48.746;9.210;2022-07-17T09:01:30;2.60;;;2.40;;
1356;SDS011;672;48.746;9.210;2022-07-17T09:03:59;2.70;;;2.50;;
1356;SDS011;672;48.746;9.210;2022-07-17T09:06:25;2.60;;;2.50;;
1356;SDS011;672;48.746;9.210;2022-07-17T09:09:04;2.70;;;2.50;;
1356;SDS011;672;48.746;9.210;2022-07-17T09:11:40;2.50;;;2.30;;
1356;SDS011;672;48.746;9.210;2022-07-17T09:14:06;2.40;;;2.30;;
1356;SDS011;672;48.746;9.210;2022-07-17T09:16:31;5.10;;;2.53;;
1356;SDS011;672;48.746;9.210;2022-07-17T09:18:59;2.43;;;2.23;;
1356;SDS011;672;48.746;9.210;2022-07-17T09:21:26;2.33;;;2.10;;
1356;SDS011;672;48.746;9.210;2022-07-17T09:26:23;2.33;;;2.10;;
1356;SDS011;672;48.746;9.210;2022-07-17T09:28:49;3.70;;;2.10;;
1356;SDS011;672;48.746;9.210;2022-07-17T09:31:24;2.63;;;2.43;;
1356;SDS011;672;48.746;9.210;2022-07-17T09:33:50;2.20;;;2.10;;
1356;SDS011;672;48.746;9.210;2022-07-17T09:36:15;3.40;;;2.20;;
1356;SDS011;672;48.746;9.210;2022-07-17T09:38:41;1.70;;;1.60;;
1356;SDS011;672;48.746;9.210;2022-07-17T09:41:17;2.93;;;1.90;;
1356;SDS011;672;48.746;9.210;2022-07-17T09:46:18;2.70;;;2.27;;
1356;SDS011;672;48.746;9.210;2022-07-17T09:48:44;1.90;;;1.60;;
1356;SDS011;672;48.746;9.210;2022-07-17T09:51:32;2.60;;;2.40;;
1356;SDS011;672;48.746;9.210;2022-07-17T09:54:03;1.73;;;1.63;;
1356;SDS011;672;48.746;9.210;2022-07-17T09:56:29;1.87;;;1.77;;
1356;SDS011;672;48.746;9.210;2022-07-17T09:58:57;1.90;;;1.80;;
1356;SDS011;672;48.746;9.210;2022-07-17T10:01:24;2.60;;;1.80;;
1356;SDS011;672;48.746;9.210;2022-07-17T10:03:50;2.70;;;1.73;;
1356;SDS011;672;48.746;9.210;2022-07-17T10:06:18;1.83;;;1.70;;
1356;SDS011;672;48.746;9.210;2022-07-17T10:08:43;2.00;;;1.90;;
1356;SDS011;672;48.746;9.210;2022-07-17T10:11:08;1.70;;;1.60;;
1356;SDS011;672;48.746;9.210;2022-07-17T10:13:40;1.80;;;1.70;;
1356;SDS011;672;48.746;9.210;2022-07-17T10:16:06;2.07;;;1.87;;
1356;SDS011;672;48.746;9.210;2022-07-17T10:18:38;2.20;;;2.00;;
1356;SDS011;672;48.746;9.210;2022-07-17T10:23:34;2.23;;;2.03;;
1356;SDS011;672;48.746;9.210;2022-07-17T10:25:59;2.00;;;1.80;;
1356;SDS011;672;48.746;9.210;2022-07-17T10:28:25;1.73;;;1.63;;
1356;SDS011;672;48.746;9.210;2022-07-17T10:30:50;1.73;;;1.63;;
1356;SDS011;672;48.746;9.210;2022-07-17T10:33:16;1.93;;;1.73;;
1356;SDS011;672;48.746;9.210;2022-07-17T10:35:43;2.40;;;1.67;;
1356;SDS011;672;48.746;9.210;2022-07-17T10:38:10;1.60;;;1.50;;
1356;SDS011;672;48.746;9.210;2022-07-17T10:40:37;2.00;;;1.90;;
1356;SDS011;672;48.746;9.210;2022-07-17T10:43:02;1.67;;;1.57;;
1356;SDS011;672;48.746;9.210;2022-07-17T10:45:33;1.53;;;1.43;;
1356;SDS011;672;48.746;9.210;2022-07-17T10:48:04;1.90;;;1.77;;
1356;SDS011;672;48.746;9.210;2022-07-17T10:55:27;1.60;;;1.47;;
1356;SDS011;672;48.746;9.210;2022-07-17T10:57:53;4.70;;;1.80;;
1356;SDS011;672;48.746;9.210;2022-07-17T11:00:19;2.00;;;1.73;;
1356;SDS011;672;48.746;9.210;2022-07-17T11:02:44;1.73;;;1.63;;
1356;SDS011;672;48.746;9.210;2022-07-17T11:05:10;2.07;;;1.90;;
1356;SDS011;672;48.746;9.210;2022-07-17T11:07:47;2.67;;;2.03;;
1356;SDS011;672;48.746;9.210;2022-07-17T11:10:13;1.90;;;1.80;;
1356;SDS011;672;48.746;9.210;2022-07-17T11:12:38;1.80;;;1.70;;
1356;SDS011;672;48.746;9.210;2022-07-17T11:15:03;2.00;;;1.90;;
1356;SDS011;672;48.746;9.210;2022-07-17T11:17:29;2.33;;;2.13;;
1356;SDS011;672;48.746;9.210;2022-07-17T11:19:54;1.70;;;1.60;;
1356;SDS011;672;48.746;9.210;2022-07-17T11:22:22;2.07;;;1.73;;
1356;SDS011;672;48.746;9.210;2022-07-17T11:24:49;1.80;;;1.70;;
1356;SDS011;672;48.746;9.210;2022-07-17T11:27:25;1.80;;;1.70;;
1356;SDS011;672;48.746;9.210;2022-07-17T11:29:51;1.70;;;1.60;;
1356;SDS011;672;48.746;9.210;2022-07-17T11:32:17;1.87;;;1.77;;
1356;SDS011;672;48.746;9.210;2022-07-17T11:34:42;1.60;;;1.50;;
1356;SDS011;672;48.746;9.210;2022-07-17T11:37:08;2.07;;;1.97;;
1356;SDS011;672;48.746;9.210;2022-07-17T11:39:38;1.67;;;1.57;;
1356;SDS011;672;48.746;9.210;2022-07-17T11:42:04;1.90;;;1.80;;
1356;SDS011;672;48.746;9.210;2022-07-17T11:44:31;1.70;;;1.60;;
1356;SDS011;672;48.746;9.210;2022-07-17T11:46:56;1.70;;;1.53;;
1356;SDS011;672;48.746;9.210;2022-07-17T11:49:25;2.13;;;1.70;;
1356;SDS011;672;48.746;9.210;2022-07-17T11:51:51;1.60;;;1.50;;
1356;SDS011;672;48.746;9.210;2022-07-17T11:54:16;1.80;;;1.70;;
1356;SDS011;672;48.746;9.210;2022-07-17T11:56:42;2.10;;;1.50;;
1356;SDS011;672;48.746;9.210;2022-07-17T11:59:08;1.90;;;1.70;;
1356;SDS011;672;48.746;9.210;2022-07-17T12:01:38;2.07;;;1.87;;
1356;SDS011;672;48.746;9.210;2022-07-17T12:04:04;2.03;;;1.83;;
1356;SDS011;672;48.746;9.210;2022-07-17T12:06:29;1.50;;;1.40;;
1356;SDS011;672;48.746;9.210;2022-07-17T12:08:54;1.77;;;1.63;;
1356;SDS011;672;48.746;9.210;2022-07-17T12:11:19;2.10;;;2.00;;
1356;SDS011;672;48.746;9.210;2022-07-17T12:13:45;1.40;;;1.30;;
1356;SDS011;672;48.746;9.210;2022-07-17T12:16:28;1.83;;;1.73;;
1356;SDS011;672;48.746;9.210;2022-07-17T12:18:57;3.50;;;1.90;;
1356;SDS011;672;48.746;9.210;2022-07-17T12:21:23;2.17;;;1.97;;
1356;SDS011;672;48.746;9.210;2022-07-17T12:23:55;1.60;;;1.50;;
1356;SDS011;672;48.746;9.210;2022-07-17T12:26:22;1.97;;;1.83;;
1356;SDS011;672;48.746;9.210;2022-07-17T12:28:47;1.80;;;1.70;;
1356;SDS011;672;48.746;9.210;2022-07-17T12:31:12;1.73;;;1.63;;
1356;SDS011;672;48.746;9.210;2022-07-17T12:33:39;1.90;;;1.80;;
1356;SDS011;672;48.746;9.210;2022-07-17T12:36:04;1.77;;;1.67;;
1356;SDS011;672;48.746;9.210;2022-07-17T12:38:30;1.90;;;1.70;;
1356;SDS011;672;48.746;9.210;2022-07-17T12:40:55;1.93;;;1.83;;
1356;SDS011;672;48.746;9.210;2022-07-17T12:43:20;2.13;;;1.67;;
1356;SDS011;672;48.746;9.210;2022-07-17T12:45:46;2.10;;;1.90;;
1356;SDS011;672;48.746;9.210;2022-07-17T12:48:11;2.10;;;1.90;;
1356;SDS011;672;48.746;9.210;2022-07-17T12:50:37;1.50;;;1.40;;
1356;SDS011;672;48.746;9.210;2022-07-17T12:53:02;1.60;;;1.50;;
1356;SDS011;672;48.746;9.210;2022-07-17T12:55:27;1.80;;;1.33;;
1356;SDS011;672;48.746;9.210;2022-07-17T12:57:53;2.20;;;1.90;;
1356;SDS011;672;48.746;9.210;2022-07-17T13:00:18;2.23;;;1.93;;
1356;SDS011;672;48.746;9.210;2022-07-17T13:02:43;1.70;;;1.60;;
1356;SDS011;672;48.746;9.210;2022-07-17T13:05:08;1.60;;;1.50;;
1356;SDS011;672;48.746;9.210;2022-07-17T13:07:34;1.60;;;1.50;;
1356;SDS011;672;48.746;9.210;2022-07-17T13:09:59;1.70;;;1.60;;
1356;SDS011;672;48.746;9.210;2022-07-17T13:12:24;1.57;;;1.47;;
1356;SDS011;672;48.746;9.210;2022-07-17T13:14:49;2.70;;;2.00;;
1356;SDS011;672;48.746;9.210;2022-07-17T13:17:15;1.80;;;1.70;;
1356;SDS011;672;48.746;9.210;2022-07-17T13:19:40;1.60;;;1.50;;
1356;SDS011;672;48.746;9.210;2022-07-17T13:22:05;4.33;;;1.70;;
1356;SDS011;672;48.746;9.210;2022-07-17T13:24:31;1.97;;;1.50;;
1356;SDS011;672;48.746;9.210;2022-07-17T13:26:56;1.80;;;1.70;;
1356;SDS011;672;48.746;9.210;2022-07-17T13:29:21;1.70;;;1.60;;
1356;SDS011;672;48.746;9.210;2022-07-17T13:31:47;2.20;;;2.00;;
1356;SDS011;672;48.746;9.210;2022-07-17T13:34:12;1.83;;;1.50;;
1356;SDS011;672;48.746;9.210;2022-07-17T13:36:37;2.80;;;1.50;;
1356;SDS011;672;48.746;9.210;2022-07-17T13:39:03;1.60;;;1.50;;
1356;SDS011;672;48.746;9.210;2022-07-17T13:41:29;2.40;;;2.20;;
1356;SDS011;672;48.746;9.210;2022-07-17T13:43:55;1.90;;;1.80;;
1356;SDS011;672;48.746;9.210;2022-07-17T13:46:20;1.73;;;1.63;;
1356;SDS011;672;48.746;9.210;2022-07-17T13:48:46;1.70;;;1.60;;
1356;SDS011;672;48.746;9.210;2022-07-17T13:51:11;1.77;;;1.33;;
1356;SDS011;672;48.746;9.210;2022-07-17T13:53:37;3.40;;;1.60;;
1356;SDS011;672;48.746;9.210;2022-07-17T13:56:02;1.60;;;1.43;;
1356;SDS011;672;48.746;9.210;2022-07-17T13:58:27;1.63;;;1.30;;
1356;SDS011;672;48.746;9.210;2022-07-17T14:00:52;1.30;;;1.20;;
1356;SDS011;672;48.746;9.210;2022-07-17T14:03:18;1.73;;;1.63;;
1356;SDS011;672;48.746;9.210;2022-07-17T14:05:43;1.73;;;1.43;;
1356;SDS011;672;48.746;9.210;2022-07-17T14:08:08;1.50;;;1.40;;
1356;SDS011;672;48.746;9.210;2022-07-17T14:10:33;1.60;;;1.50;;
1356;SDS011;672;48.746;9.210;2022-07-17T14:12:59;2.00;;;1.50;;
1356;SDS011;672;48.746;9.210;2022-07-17T14:15:24;1.93;;;1.60;;
1356;SDS011;672;48.746;9.210;2022-07-17T14:17:49;1.50;;;1.40;;
1356;SDS011;672;48.746;9.210;2022-07-17T14:20:14;1.63;;;1.53;;
1356;SDS011;672;48.746;9.210;2022-07-17T14:22:40;1.57;;;1.47;;
1356;SDS011;672;48.746;9.210;2022-07-17T14:25:05;1.40;;;1.30;;
1356;SDS011;672;48.746;9.210;2022-07-17T14:27:31;1.50;;;1.40;;
1356;SDS011;672;48.746;9.210;2022-07-17T14:29:56;1.90;;;1.70;;
1356;SDS011;672;48.746;9.210;2022-07-17T14:32:21;1.37;;;1.27;;
1356;SDS011;672;48.746;9.210;2022-07-17T14:34:46;1.57;;;1.30;;
1356;SDS011;672;48.746;9.210;2022-07-17T14:37:12;2.50;;;1.70;;
1356;SDS011;672;48.746;9.210;2022-07-17T14:39:37;1.40;;;1.23;;
1356;SDS011;672;48.746;9.210;2022-07-17T14:42:02;1.60;;;1.50;;
1356;SDS011;672;48.746;9.210;2022-07-17T14:44:28;1.57;;;1.47;;
1356;SDS011;672;48.746;9.210;2022-07-17T14:46:55;2.07;;;1.47;;
1356;SDS011;672;48.746;9.210;2022-07-17T14:49:21;1.50;;;1.40;;
1356;SDS011;672;48.746;9.210;2022-07-17T14:51:46;1.77;;;1.67;;
1356;SDS011;672;48.746;9.210;2022-07-17T14:54:11;1.40;;;1.30;;
1356;SDS011;672;48.746;9.210;2022-07-17T14:56:36;1.50;;;1.37;;
1356;SDS011;672;48.746;9.210;2022-07-17T14:59:02;1.50;;;1.40;;
1356;SDS011;672;48.746;9.210;2022-07-17T15:01:27;2.30;;;1.37;;
1356;SDS011;672;48.746;9.210;2022-07-17T15:03:52;1.50;;;1.40;;
1356;SDS011;672;48.746;9.210;2022-07-17T15:06:17;1.70;;;1.50;;
1356;SDS011;672;48.746;9.210;2022-07-17T15:08:43;1.83;;;1.37;;
1356;SDS011;672;48.746;9.210;2022-07-17T15:11:08;1.50;;;1.40;;
1356;SDS011;672;48.746;9.210;2022-07-17T15:13:33;1.50;;;1.40;;
1356;SDS011;672;48.746;9.210;2022-07-17T15:15:58;1.30;;;1.20;;
1356;SDS011;672;48.746;9.210;2022-07-17T15:18:24;1.30;;;1.20;;
1356;SDS011;672;48.746;9.210;2022-07-17T15:20:49;2.10;;;1.40;;
1356;SDS011;672;48.746;9.210;2022-07-17T15:23:14;1.27;;;1.17;;
1356;SDS011;672;48.746;9.210;2022-07-17T15:25:39;1.30;;;1.20;;
1356;SDS011;672;48.746;9.210;2022-07-17T15:28:05;1.67;;;1.57;;
1356;SDS011;672;48.746;9.210;2022-07-17T15:30:31;1.33;;;1.23;;
1356;SDS011;672;48.746;9.210;2022-07-17T15:32:56;1.83;;;1.73;;